sensor_id;sensor_type;location;lat;lon;timestamp;temperature;humidity
54938;DHT22;52756;52.826;6.214;2023-09-19T00:00:30;17.30;74.30
54938;DHT22;52756;52.826;6.214;2023-09-19T00:02:57;17.30;74.30
54938;DHT22;52756;52.826;6.214;2023-09-19T00:05:29;17.30;74.40
54938;DHT22;52756;52.826;6.214;2023-09-19T00:07:57;17.20;74.10
54938;DHT22;52756;52.826;6.214;2023-09-19T00:10:31;17.20;74.30
54938;DHT22;52756;52.826;6.214;2023-09-19T00:12:58;17.10;74.30
54938;DHT22;52756;52.826;6.214;2023-09-19T00:15:35;17.10;74.20
54938;DHT22;52756;52.826;6.214;2023-09-19T00:18:01;17.10;74.30
54938;DHT22;52756;52.826;6.214;2023-09-19T00:20:27;17.00;74.40
54938;DHT22;52756;52.826;6.214;2023-09-19T00:22:55;17.00;74.50
54938;DHT22;52756;52.826;6.214;2023-09-19T00:25:20;17.00;74.60
54938;DHT22;52756;52.826;6.214;2023-09-19T00:27:47;16.90;75.00
54938;DHT22;52756;52.826;6.214;2023-09-19T00:30:17;16.90;74.80
54938;DHT22;52756;52.826;6.214;2023-09-19T00:32:47;16.90;74.90
54938;DHT22;52756;52.826;6.214;2023-09-19T00:35:16;16.90;74.90
54938;DHT22;52756;52.826;6.214;2023-09-19T00:37:42;16.90;74.80
54938;DHT22;52756;52.826;6.214;2023-09-19T00:40:09;16.80;74.80
54938;DHT22;52756;52.826;6.214;2023-09-19T00:42:39;16.80;75.00
54938;DHT22;52756;52.826;6.214;2023-09-19T00:45:07;16.80;75.10
54938;DHT22;52756;52.826;6.214;2023-09-19T00:47:36;16.80;75.30
54938;DHT22;52756;52.826;6.214;2023-09-19T00:50:04;16.80;75.30
54938;DHT22;52756;52.826;6.214;2023-09-19T00:52:34;16.80;75.30
54938;DHT22;52756;52.826;6.214;2023-09-19T00:55:02;16.70;75.30
54938;DHT22;52756;52.826;6.214;2023-09-19T00:57:29;16.70;75.30
54938;DHT22;52756;52.826;6.214;2023-09-19T00:59:58;16.70;75.40
54938;DHT22;52756;52.826;6.214;2023-09-19T01:02:25;16.70;75.50
54938;DHT22;52756;52.826;6.214;2023-09-19T01:04:54;16.70;75.30
54938;DHT22;52756;52.826;6.214;2023-09-19T01:07:20;16.70;75.10
54938;DHT22;52756;52.826;6.214;2023-09-19T01:09:48;16.60;75.10
54938;DHT22;52756;52.826;6.214;2023-09-19T01:12:17;16.60;75.10
54938;DHT22;52756;52.826;6.214;2023-09-19T01:15:00;16.60;75.10
54938;DHT22;52756;52.826;6.214;2023-09-19T01:17:34;16.60;75.00
54938;DHT22;52756;52.826;6.214;2023-09-19T01:20:19;16.60;75.10
54938;DHT22;52756;52.826;6.214;2023-09-19T01:22:59;16.50;75.00
54938;DHT22;52756;52.826;6.214;2023-09-19T01:25:41;16.50;74.90
54938;DHT22;52756;52.826;6.214;2023-09-19T01:30:42;16.50;74.50
54938;DHT22;52756;52.826;6.214;2023-09-19T01:33:09;16.40;74.20
54938;DHT22;52756;52.826;6.214;2023-09-19T01:35:38;16.40;74.00
54938;DHT22;52756;52.826;6.214;2023-09-19T01:38:05;16.40;74.10
54938;DHT22;52756;52.826;6.214;2023-09-19T01:40:43;16.40;74.40
54938;DHT22;52756;52.826;6.214;2023-09-19T01:43:36;16.40;74.50
54938;DHT22;52756;52.826;6.214;2023-09-19T01:46:12;16.40;74.20
54938;DHT22;52756;52.826;6.214;2023-09-19T01:48:58;16.30;74.40
54938;DHT22;52756;52.826;6.214;2023-09-19T01:51:44;16.30;74.30
54938;DHT22;52756;52.826;6.214;2023-09-19T01:54:14;16.30;74.20
54938;DHT22;52756;52.826;6.214;2023-09-19T01:59:50;16.30;74.40
54938;DHT22;52756;52.826;6.214;2023-09-19T02:02:20;16.20;74.50
54938;DHT22;52756;52.826;6.214;2023-09-19T02:04:48;16.20;74.40
54938;DHT22;52756;52.826;6.214;2023-09-19T02:07:14;16.20;74.30
54938;DHT22;52756;52.826;6.214;2023-09-19T02:09:40;16.10;74.20
54938;DHT22;52756;52.826;6.214;2023-09-19T02:12:09;16.10;74.40
54938;DHT22;52756;52.826;6.214;2023-09-19T02:14:35;16.10;74.50
54938;DHT22;52756;52.826;6.214;2023-09-19T02:17:02;16.00;74.40
54938;DHT22;52756;52.826;6.214;2023-09-19T02:19:32;16.00;74.40
54938;DHT22;52756;52.826;6.214;2023-09-19T02:21:59;15.90;74.30
54938;DHT22;52756;52.826;6.214;2023-09-19T02:24:25;15.90;74.50
54938;DHT22;52756;52.826;6.214;2023-09-19T02:26:52;15.90;74.70
54938;DHT22;52756;52.826;6.214;2023-09-19T02:29:18;15.90;74.90
54938;DHT22;52756;52.826;6.214;2023-09-19T02:31:44;15.80;75.20
54938;DHT22;52756;52.826;6.214;2023-09-19T02:34:11;15.80;75.40
54938;DHT22;52756;52.826;6.214;2023-09-19T02:36:37;15.80;75.60
54938;DHT22;52756;52.826;6.214;2023-09-19T02:39:03;15.80;75.70
54938;DHT22;52756;52.826;6.214;2023-09-19T02:41:30;15.70;75.80
54938;DHT22;52756;52.826;6.214;2023-09-19T02:43:58;15.70;75.90
54938;DHT22;52756;52.826;6.214;2023-09-19T02:46:24;15.70;76.00
54938;DHT22;52756;52.826;6.214;2023-09-19T02:48:50;15.70;76.10
54938;DHT22;52756;52.826;6.214;2023-09-19T02:51:16;15.60;76.20
54938;DHT22;52756;52.826;6.214;2023-09-19T02:53:41;15.60;76.30
54938;DHT22;52756;52.826;6.214;2023-09-19T02:56:07;15.60;76.50
54938;DHT22;52756;52.826;6.214;2023-09-19T02:58:35;15.60;76.70
54938;DHT22;52756;52.826;6.214;2023-09-19T03:01:08;15.60;76.80
54938;DHT22;52756;52.826;6.214;2023-09-19T03:03:34;15.60;76.80
54938;DHT22;52756;52.826;6.214;2023-09-19T03:06:00;15.50;76.80
54938;DHT22;52756;52.826;6.214;2023-09-19T03:08:30;15.50;76.90
54938;DHT22;52756;52.826;6.214;2023-09-19T03:10:55;15.50;77.00
54938;DHT22;52756;52.826;6.214;2023-09-19T03:13:21;15.50;77.00
54938;DHT22;52756;52.826;6.214;2023-09-19T03:15:47;15.50;77.00
54938;DHT22;52756;52.826;6.214;2023-09-19T03:18:15;15.60;77.10
54938;DHT22;52756;52.826;6.214;2023-09-19T03:20:41;15.60;77.10
54938;DHT22;52756;52.826;6.214;2023-09-19T03:23:06;15.60;77.00
54938;DHT22;52756;52.826;6.214;2023-09-19T03:25:36;15.50;77.00
54938;DHT22;52756;52.826;6.214;2023-09-19T03:28:03;15.50;77.00
54938;DHT22;52756;52.826;6.214;2023-09-19T03:30:32;15.50;76.80
54938;DHT22;52756;52.826;6.214;2023-09-19T03:32:59;15.50;76.80
54938;DHT22;52756;52.826;6.214;2023-09-19T03:35:24;15.50;77.00
54938;DHT22;52756;52.826;6.214;2023-09-19T03:37:50;15.50;76.80
54938;DHT22;52756;52.826;6.214;2023-09-19T03:40:18;15.50;76.80
54938;DHT22;52756;52.826;6.214;2023-09-19T03:42:45;15.50;76.80
54938;DHT22;52756;52.826;6.214;2023-09-19T03:45:12;15.50;76.70
54938;DHT22;52756;52.826;6.214;2023-09-19T03:47:38;15.50;76.60
54938;DHT22;52756;52.826;6.214;2023-09-19T03:50:05;15.50;76.70
54938;DHT22;52756;52.826;6.214;2023-09-19T03:52:32;15.50;76.70
54938;DHT22;52756;52.826;6.214;2023-09-19T03:54:58;15.50;76.60
54938;DHT22;52756;52.826;6.214;2023-09-19T03:57:24;15.50;76.60
54938;DHT22;52756;52.826;6.214;2023-09-19T03:59:49;15.50;76.50
54938;DHT22;52756;52.826;6.214;2023-09-19T04:02:19;15.50;76.50
54938;DHT22;52756;52.826;6.214;2023-09-19T04:04:53;15.40;76.60
54938;DHT22;52756;52.826;6.214;2023-09-19T04:07:19;15.40;76.70
54938;DHT22;52756;52.826;6.214;2023-09-19T04:09:47;15.40;76.90
54938;DHT22;52756;52.826;6.214;2023-09-19T04:12:14;15.40;76.90
54938;DHT22;52756;52.826;6.214;2023-09-19T04:14:42;15.40;77.10
54938;DHT22;52756;52.826;6.214;2023-09-19T04:17:08;15.40;77.30
54938;DHT22;52756;52.826;6.214;2023-09-19T04:19:35;15.40;77.70
54938;DHT22;52756;52.826;6.214;2023-09-19T04:22:01;15.40;77.40
54938;DHT22;52756;52.826;6.214;2023-09-19T04:24:26;15.40;77.50
54938;DHT22;52756;52.826;6.214;2023-09-19T04:26:52;15.40;77.50
54938;DHT22;52756;52.826;6.214;2023-09-19T04:29:18;15.40;77.60
54938;DHT22;52756;52.826;6.214;2023-09-19T04:31:44;15.40;77.80
54938;DHT22;52756;52.826;6.214;2023-09-19T04:34:12;15.50;77.90
54938;DHT22;52756;52.826;6.214;2023-09-19T04:36:43;15.50;78.00
54938;DHT22;52756;52.826;6.214;2023-09-19T04:39:09;15.50;78.00
54938;DHT22;52756;52.826;6.214;2023-09-19T04:41:37;15.60;78.10
54938;DHT22;52756;52.826;6.214;2023-09-19T04:44:06;15.60;78.10
54938;DHT22;52756;52.826;6.214;2023-09-19T04:46:33;15.60;78.10
54938;DHT22;52756;52.826;6.214;2023-09-19T04:48:59;15.60;78.00
54938;DHT22;52756;52.826;6.214;2023-09-19T04:51:25;15.60;77.80
54938;DHT22;52756;52.826;6.214;2023-09-19T04:53:52;15.70;77.80
54938;DHT22;52756;52.826;6.214;2023-09-19T04:56:17;15.70;77.70
54938;DHT22;52756;52.826;6.214;2023-09-19T04:58:44;15.70;77.60
54938;DHT22;52756;52.826;6.214;2023-09-19T05:01:10;15.70;77.50
54938;DHT22;52756;52.826;6.214;2023-09-19T05:03:37;15.70;77.60
54938;DHT22;52756;52.826;6.214;2023-09-19T05:06:03;15.70;77.50
54938;DHT22;52756;52.826;6.214;2023-09-19T05:08:30;15.70;77.40
54938;DHT22;52756;52.826;6.214;2023-09-19T05:10:56;15.70;77.40
54938;DHT22;52756;52.826;6.214;2023-09-19T05:13:22;15.70;77.40
54938;DHT22;52756;52.826;6.214;2023-09-19T05:15:50;15.70;77.40
54938;DHT22;52756;52.826;6.214;2023-09-19T05:18:16;15.70;77.80
54938;DHT22;52756;52.826;6.214;2023-09-19T05:20:42;15.70;77.40
54938;DHT22;52756;52.826;6.214;2023-09-19T05:23:08;15.70;77.40
54938;DHT22;52756;52.826;6.214;2023-09-19T05:25:36;15.80;77.40
54938;DHT22;52756;52.826;6.214;2023-09-19T05:28:09;15.80;77.40
54938;DHT22;52756;52.826;6.214;2023-09-19T05:30:36;15.80;77.30
54938;DHT22;52756;52.826;6.214;2023-09-19T05:33:02;15.80;77.20
54938;DHT22;52756;52.826;6.214;2023-09-19T05:35:29;15.80;77.20
54938;DHT22;52756;52.826;6.214;2023-09-19T05:37:56;15.80;77.00
54938;DHT22;52756;52.826;6.214;2023-09-19T05:40:24;15.80;77.00
54938;DHT22;52756;52.826;6.214;2023-09-19T05:42:50;15.90;76.90
54938;DHT22;52756;52.826;6.214;2023-09-19T05:45:16;15.80;76.70
54938;DHT22;52756;52.826;6.214;2023-09-19T05:47:48;15.80;76.50
54938;DHT22;52756;52.826;6.214;2023-09-19T05:50:15;15.80;76.50
54938;DHT22;52756;52.826;6.214;2023-09-19T05:52:42;15.80;76.40
54938;DHT22;52756;52.826;6.214;2023-09-19T05:55:09;15.80;76.50
54938;DHT22;52756;52.826;6.214;2023-09-19T05:57:37;15.80;76.50
54938;DHT22;52756;52.826;6.214;2023-09-19T06:00:05;15.80;76.50
54938;DHT22;52756;52.826;6.214;2023-09-19T06:02:36;15.80;76.50
54938;DHT22;52756;52.826;6.214;2023-09-19T06:05:04;15.80;76.60
54938;DHT22;52756;52.826;6.214;2023-09-19T06:07:34;15.80;76.70
54938;DHT22;52756;52.826;6.214;2023-09-19T06:10:04;15.80;76.80
54938;DHT22;52756;52.826;6.214;2023-09-19T06:12:33;15.80;76.90
54938;DHT22;52756;52.826;6.214;2023-09-19T06:15:00;15.80;76.90
54938;DHT22;52756;52.826;6.214;2023-09-19T06:17:26;15.90;77.00
54938;DHT22;52756;52.826;6.214;2023-09-19T06:19:53;15.90;77.10
54938;DHT22;52756;52.826;6.214;2023-09-19T06:22:22;15.90;77.30
54938;DHT22;52756;52.826;6.214;2023-09-19T06:24:49;15.90;77.10
54938;DHT22;52756;52.826;6.214;2023-09-19T06:27:15;15.90;76.80
54938;DHT22;52756;52.826;6.214;2023-09-19T06:29:41;15.90;76.60
54938;DHT22;52756;52.826;6.214;2023-09-19T06:32:10;15.90;76.40
54938;DHT22;52756;52.826;6.214;2023-09-19T06:34:37;15.90;76.30
54938;DHT22;52756;52.826;6.214;2023-09-19T06:37:04;15.90;76.10
54938;DHT22;52756;52.826;6.214;2023-09-19T06:39:31;15.90;76.10
54938;DHT22;52756;52.826;6.214;2023-09-19T06:41:57;15.90;76.20
54938;DHT22;52756;52.826;6.214;2023-09-19T06:44:23;15.90;76.10
54938;DHT22;52756;52.826;6.214;2023-09-19T06:46:50;15.90;76.20
54938;DHT22;52756;52.826;6.214;2023-09-19T06:49:17;15.90;76.10
54938;DHT22;52756;52.826;6.214;2023-09-19T06:51:43;15.90;75.80
54938;DHT22;52756;52.826;6.214;2023-09-19T06:54:10;15.90;75.90
54938;DHT22;52756;52.826;6.214;2023-09-19T06:56:35;15.90;75.90
54938;DHT22;52756;52.826;6.214;2023-09-19T06:59:01;15.90;75.90
54938;DHT22;52756;52.826;6.214;2023-09-19T07:01:28;15.90;76.00
54938;DHT22;52756;52.826;6.214;2023-09-19T07:03:54;15.90;75.90
54938;DHT22;52756;52.826;6.214;2023-09-19T07:06:20;15.90;75.90
54938;DHT22;52756;52.826;6.214;2023-09-19T07:08:46;15.90;76.00
54938;DHT22;52756;52.826;6.214;2023-09-19T07:11:11;15.90;76.40
54938;DHT22;52756;52.826;6.214;2023-09-19T07:13:38;15.90;76.00
54938;DHT22;52756;52.826;6.214;2023-09-19T07:16:04;15.90;75.80
54938;DHT22;52756;52.826;6.214;2023-09-19T07:18:30;15.90;75.80
54938;DHT22;52756;52.826;6.214;2023-09-19T07:20:57;15.90;75.90
54938;DHT22;52756;52.826;6.214;2023-09-19T07:23:26;15.90;76.00
54938;DHT22;52756;52.826;6.214;2023-09-19T07:25:56;15.90;75.90
54938;DHT22;52756;52.826;6.214;2023-09-19T07:28:21;15.90;76.00
54938;DHT22;52756;52.826;6.214;2023-09-19T07:30:48;15.90;76.10
54938;DHT22;52756;52.826;6.214;2023-09-19T07:33:14;15.90;76.10
54938;DHT22;52756;52.826;6.214;2023-09-19T07:35:40;16.00;76.10
54938;DHT22;52756;52.826;6.214;2023-09-19T07:38:06;16.00;76.10
54938;DHT22;52756;52.826;6.214;2023-09-19T07:40:33;15.90;76.20
54938;DHT22;52756;52.826;6.214;2023-09-19T07:42:59;16.00;76.40
54938;DHT22;52756;52.826;6.214;2023-09-19T07:45:28;16.00;76.70
54938;DHT22;52756;52.826;6.214;2023-09-19T07:47:55;16.00;76.90
54938;DHT22;52756;52.826;6.214;2023-09-19T07:50:21;16.00;77.00
54938;DHT22;52756;52.826;6.214;2023-09-19T07:52:48;16.00;76.90
54938;DHT22;52756;52.826;6.214;2023-09-19T07:55:16;16.10;76.90
54938;DHT22;52756;52.826;6.214;2023-09-19T07:57:43;16.10;76.80
54938;DHT22;52756;52.826;6.214;2023-09-19T08:00:10;16.20;76.60
54938;DHT22;52756;52.826;6.214;2023-09-19T08:02:36;16.20;76.60
54938;DHT22;52756;52.826;6.214;2023-09-19T08:05:06;16.30;76.50
54938;DHT22;52756;52.826;6.214;2023-09-19T08:07:36;16.30;76.60
54938;DHT22;52756;52.826;6.214;2023-09-19T08:10:05;16.40;76.40
54938;DHT22;52756;52.826;6.214;2023-09-19T08:12:37;16.40;76.10
54938;DHT22;52756;52.826;6.214;2023-09-19T08:15:03;16.50;75.70
54938;DHT22;52756;52.826;6.214;2023-09-19T08:17:33;16.60;75.80
54938;DHT22;52756;52.826;6.214;2023-09-19T08:19:59;16.60;75.90
54938;DHT22;52756;52.826;6.214;2023-09-19T08:22:25;16.70;76.10
54938;DHT22;52756;52.826;6.214;2023-09-19T08:24:51;16.80;76.40
54938;DHT22;52756;52.826;6.214;2023-09-19T08:27:17;16.90;75.90
54938;DHT22;52756;52.826;6.214;2023-09-19T08:29:45;17.00;75.50
54938;DHT22;52756;52.826;6.214;2023-09-19T08:32:11;17.00;75.10
54938;DHT22;52756;52.826;6.214;2023-09-19T08:34:37;17.20;75.00
54938;DHT22;52756;52.826;6.214;2023-09-19T08:37:03;17.30;75.10
54938;DHT22;52756;52.826;6.214;2023-09-19T08:39:30;17.40;74.60
54938;DHT22;52756;52.826;6.214;2023-09-19T08:41:59;17.60;74.60
54938;DHT22;52756;52.826;6.214;2023-09-19T08:44:25;17.70;74.10
54938;DHT22;52756;52.826;6.214;2023-09-19T08:46:55;17.80;73.70
54938;DHT22;52756;52.826;6.214;2023-09-19T08:49:54;18.00;73.00
54938;DHT22;52756;52.826;6.214;2023-09-19T08:52:32;18.10;72.30
54938;DHT22;52756;52.826;6.214;2023-09-19T08:55:02;18.20;72.00
54938;DHT22;52756;52.826;6.214;2023-09-19T08:57:33;18.30;71.30
54938;DHT22;52756;52.826;6.214;2023-09-19T09:00:02;18.40;70.60
54938;DHT22;52756;52.826;6.214;2023-09-19T09:02:31;18.50;70.70
54938;DHT22;52756;52.826;6.214;2023-09-19T09:04:59;18.60;70.20
54938;DHT22;52756;52.826;6.214;2023-09-19T09:07:25;18.70;69.90
54938;DHT22;52756;52.826;6.214;2023-09-19T09:09:54;18.80;69.70
54938;DHT22;52756;52.826;6.214;2023-09-19T09:12:20;18.90;69.50
54938;DHT22;52756;52.826;6.214;2023-09-19T09:14:46;19.00;69.10
54938;DHT22;52756;52.826;6.214;2023-09-19T09:17:14;19.10;68.70
54938;DHT22;52756;52.826;6.214;2023-09-19T09:19:40;19.20;68.50
54938;DHT22;52756;52.826;6.214;2023-09-19T09:22:10;19.20;68.20
54938;DHT22;52756;52.826;6.214;2023-09-19T09:24:37;19.30;67.60
54938;DHT22;52756;52.826;6.214;2023-09-19T09:27:06;19.30;67.20
54938;DHT22;52756;52.826;6.214;2023-09-19T09:29:46;19.40;66.60
54938;DHT22;52756;52.826;6.214;2023-09-19T09:32:21;19.40;66.70
54938;DHT22;52756;52.826;6.214;2023-09-19T09:34:55;19.50;66.00
54938;DHT22;52756;52.826;6.214;2023-09-19T09:37:21;19.50;66.40
54938;DHT22;52756;52.826;6.214;2023-09-19T09:39:52;19.60;67.20
54938;DHT22;52756;52.826;6.214;2023-09-19T09:42:35;19.60;65.70
54938;DHT22;52756;52.826;6.214;2023-09-19T09:45:23;19.60;64.20
54938;DHT22;52756;52.826;6.214;2023-09-19T09:48:01;19.70;65.20
54938;DHT22;52756;52.826;6.214;2023-09-19T09:50:46;19.70;64.80
54938;DHT22;52756;52.826;6.214;2023-09-19T09:53:29;19.70;65.40
54938;DHT22;52756;52.826;6.214;2023-09-19T09:56:05;19.80;65.70
54938;DHT22;52756;52.826;6.214;2023-09-19T09:58:34;19.90;65.40
54938;DHT22;52756;52.826;6.214;2023-09-19T10:01:01;19.90;65.70
54938;DHT22;52756;52.826;6.214;2023-09-19T10:03:38;20.00;65.40
54938;DHT22;52756;52.826;6.214;2023-09-19T10:06:12;20.00;65.00
54938;DHT22;52756;52.826;6.214;2023-09-19T10:09:04;20.10;64.40
54938;DHT22;52756;52.826;6.214;2023-09-19T10:12:05;20.20;64.20
54938;DHT22;52756;52.826;6.214;2023-09-19T10:14:37;20.30;64.00
54938;DHT22;52756;52.826;6.214;2023-09-19T10:17:09;20.40;63.80
54938;DHT22;52756;52.826;6.214;2023-09-19T10:19:55;20.40;62.60
54938;DHT22;52756;52.826;6.214;2023-09-19T10:22:23;20.50;61.00
54938;DHT22;52756;52.826;6.214;2023-09-19T10:24:51;20.50;60.80
54938;DHT22;52756;52.826;6.214;2023-09-19T10:27:25;20.40;60.40
54938;DHT22;52756;52.826;6.214;2023-09-19T10:29:52;20.40;60.30
54938;DHT22;52756;52.826;6.214;2023-09-19T10:32:22;20.30;60.80
54938;DHT22;52756;52.826;6.214;2023-09-19T10:34:49;20.30;60.90
54938;DHT22;52756;52.826;6.214;2023-09-19T10:37:20;20.30;61.60
54938;DHT22;52756;52.826;6.214;2023-09-19T10:39:48;20.30;61.10
54938;DHT22;52756;52.826;6.214;2023-09-19T10:42:19;20.30;61.40
54938;DHT22;52756;52.826;6.214;2023-09-19T10:44:47;20.40;61.60
54938;DHT22;52756;52.826;6.214;2023-09-19T10:47:16;20.40;61.00
54938;DHT22;52756;52.826;6.214;2023-09-19T10:49:45;20.40;61.50
54938;DHT22;52756;52.826;6.214;2023-09-19T10:52:20;20.40;60.50
54938;DHT22;52756;52.826;6.214;2023-09-19T10:54:50;20.40;60.20
54938;DHT22;52756;52.826;6.214;2023-09-19T10:57:24;20.40;60.50
54938;DHT22;52756;52.826;6.214;2023-09-19T11:00:08;20.40;60.60
54938;DHT22;52756;52.826;6.214;2023-09-19T11:05:40;20.40;60.70
54938;DHT22;52756;52.826;6.214;2023-09-19T11:08:10;20.40;60.40
54938;DHT22;52756;52.826;6.214;2023-09-19T11:10:50;20.40;60.20
54938;DHT22;52756;52.826;6.214;2023-09-19T11:13:30;20.30;60.20
54938;DHT22;52756;52.826;6.214;2023-09-19T11:26:57;20.20;60.30
54938;DHT22;52756;52.826;6.214;2023-09-19T11:29:34;20.20;60.90
54938;DHT22;52756;52.826;6.214;2023-09-19T11:32:01;20.20;61.20
54938;DHT22;52756;52.826;6.214;2023-09-19T11:34:48;20.10;61.60
54938;DHT22;52756;52.826;6.214;2023-09-19T11:40:09;20.20;61.50
54938;DHT22;52756;52.826;6.214;2023-09-19T11:42:46;20.10;60.80
54938;DHT22;52756;52.826;6.214;2023-09-19T11:48:16;20.10;61.50
54938;DHT22;52756;52.826;6.214;2023-09-19T11:50:45;20.00;61.70
54938;DHT22;52756;52.826;6.214;2023-09-19T11:53:12;20.00;61.00
54938;DHT22;52756;52.826;6.214;2023-09-19T11:55:39;20.00;61.10
54938;DHT22;52756;52.826;6.214;2023-09-19T11:58:09;20.00;61.20
54938;DHT22;52756;52.826;6.214;2023-09-19T12:00:38;19.90;61.50
54938;DHT22;52756;52.826;6.214;2023-09-19T12:03:09;19.90;61.50
54938;DHT22;52756;52.826;6.214;2023-09-19T12:05:35;19.90;61.50
54938;DHT22;52756;52.826;6.214;2023-09-19T12:08:07;19.80;61.50
54938;DHT22;52756;52.826;6.214;2023-09-19T12:10:50;19.80;61.70
54938;DHT22;52756;52.826;6.214;2023-09-19T12:13:17;19.80;61.50
54938;DHT22;52756;52.826;6.214;2023-09-19T12:15:44;19.80;61.70
54938;DHT22;52756;52.826;6.214;2023-09-19T12:18:26;19.80;61.80
54938;DHT22;52756;52.826;6.214;2023-09-19T12:20:52;19.80;61.70
54938;DHT22;52756;52.826;6.214;2023-09-19T12:23:20;19.70;61.50
54938;DHT22;52756;52.826;6.214;2023-09-19T12:25:46;19.70;61.90
54938;DHT22;52756;52.826;6.214;2023-09-19T12:28:14;19.70;62.30
54938;DHT22;52756;52.826;6.214;2023-09-19T12:30:42;19.70;62.60
54938;DHT22;52756;52.826;6.214;2023-09-19T12:33:18;19.70;62.20
54938;DHT22;52756;52.826;6.214;2023-09-19T12:35:51;19.70;62.10
54938;DHT22;52756;52.826;6.214;2023-09-19T12:38:28;19.70;62.20
54938;DHT22;52756;52.826;6.214;2023-09-19T12:40:55;19.70;62.20
54938;DHT22;52756;52.826;6.214;2023-09-19T12:43:22;19.70;61.90
54938;DHT22;52756;52.826;6.214;2023-09-19T12:45:48;19.70;62.00
54938;DHT22;52756;52.826;6.214;2023-09-19T12:51:22;19.70;61.80
54938;DHT22;52756;52.826;6.214;2023-09-19T12:53:57;19.70;62.40
54938;DHT22;52756;52.826;6.214;2023-09-19T12:56:23;19.60;62.50
54938;DHT22;52756;52.826;6.214;2023-09-19T12:58:57;19.60;62.50
54938;DHT22;52756;52.826;6.214;2023-09-19T13:01:25;19.60;62.50
54938;DHT22;52756;52.826;6.214;2023-09-19T13:04:14;19.60;62.70
54938;DHT22;52756;52.826;6.214;2023-09-19T13:06:48;19.60;63.00
54938;DHT22;52756;52.826;6.214;2023-09-19T13:09:15;19.50;63.00
54938;DHT22;52756;52.826;6.214;2023-09-19T13:11:42;19.50;62.90
54938;DHT22;52756;52.826;6.214;2023-09-19T13:14:26;19.50;63.10
54938;DHT22;52756;52.826;6.214;2023-09-19T13:17:04;19.50;63.40
54938;DHT22;52756;52.826;6.214;2023-09-19T13:22:41;19.50;63.20
54938;DHT22;52756;52.826;6.214;2023-09-19T13:25:17;19.50;63.20
54938;DHT22;52756;52.826;6.214;2023-09-19T13:27:51;19.40;63.50
54938;DHT22;52756;52.826;6.214;2023-09-19T13:30:18;19.40;64.10
54938;DHT22;52756;52.826;6.214;2023-09-19T13:32:45;19.40;64.50
54938;DHT22;52756;52.826;6.214;2023-09-19T13:35:13;19.40;64.40
54938;DHT22;52756;52.826;6.214;2023-09-19T13:37:40;19.40;64.70
54938;DHT22;52756;52.826;6.214;2023-09-19T13:40:10;19.40;64.90
54938;DHT22;52756;52.826;6.214;2023-09-19T13:42:38;19.30;64.80
54938;DHT22;52756;52.826;6.214;2023-09-19T13:45:04;19.30;64.80
54938;DHT22;52756;52.826;6.214;2023-09-19T13:47:31;19.30;65.10
54938;DHT22;52756;52.826;6.214;2023-09-19T13:49:58;19.30;65.40
54938;DHT22;52756;52.826;6.214;2023-09-19T13:52:24;19.30;65.40
54938;DHT22;52756;52.826;6.214;2023-09-19T13:54:54;19.30;65.70
54938;DHT22;52756;52.826;6.214;2023-09-19T13:57:22;19.40;65.60
54938;DHT22;52756;52.826;6.214;2023-09-19T13:59:48;19.40;65.50
54938;DHT22;52756;52.826;6.214;2023-09-19T14:02:14;19.40;65.40
54938;DHT22;52756;52.826;6.214;2023-09-19T14:04:40;19.40;65.60
54938;DHT22;52756;52.826;6.214;2023-09-19T14:07:06;19.50;65.50
54938;DHT22;52756;52.826;6.214;2023-09-19T14:09:33;19.50;65.20
54938;DHT22;52756;52.826;6.214;2023-09-19T14:11:59;19.50;65.00
54938;DHT22;52756;52.826;6.214;2023-09-19T14:14:25;19.50;64.90
54938;DHT22;52756;52.826;6.214;2023-09-19T14:16:51;19.50;64.80
54938;DHT22;52756;52.826;6.214;2023-09-19T14:19:18;19.50;64.80
54938;DHT22;52756;52.826;6.214;2023-09-19T14:21:44;19.50;64.90
54938;DHT22;52756;52.826;6.214;2023-09-19T14:24:09;19.50;64.60
54938;DHT22;52756;52.826;6.214;2023-09-19T14:26:36;19.50;64.50
54938;DHT22;52756;52.826;6.214;2023-09-19T14:29:01;19.50;64.50
54938;DHT22;52756;52.826;6.214;2023-09-19T14:31:28;19.50;64.40
54938;DHT22;52756;52.826;6.214;2023-09-19T14:33:58;19.50;64.60
54938;DHT22;52756;52.826;6.214;2023-09-19T14:36:25;19.50;64.80
54938;DHT22;52756;52.826;6.214;2023-09-19T14:38:55;19.40;64.90
54938;DHT22;52756;52.826;6.214;2023-09-19T14:41:23;19.40;65.00
54938;DHT22;52756;52.826;6.214;2023-09-19T14:43:51;19.40;65.30
54938;DHT22;52756;52.826;6.214;2023-09-19T14:46:17;19.40;65.20
54938;DHT22;52756;52.826;6.214;2023-09-19T14:48:44;19.40;65.00
54938;DHT22;52756;52.826;6.214;2023-09-19T14:51:13;19.40;65.20
54938;DHT22;52756;52.826;6.214;2023-09-19T14:53:40;19.40;65.50
54938;DHT22;52756;52.826;6.214;2023-09-19T14:56:08;19.40;65.80
54938;DHT22;52756;52.826;6.214;2023-09-19T14:58:34;19.30;65.90
54938;DHT22;52756;52.826;6.214;2023-09-19T15:01:08;19.30;66.50
54938;DHT22;52756;52.826;6.214;2023-09-19T15:03:35;19.30;67.20
54938;DHT22;52756;52.826;6.214;2023-09-19T15:06:05;19.20;67.80
54938;DHT22;52756;52.826;6.214;2023-09-19T15:08:32;19.20;68.10
54938;DHT22;52756;52.826;6.214;2023-09-19T15:11:03;19.10;68.20
54938;DHT22;52756;52.826;6.214;2023-09-19T15:13:34;19.10;68.40
54938;DHT22;52756;52.826;6.214;2023-09-19T15:16:05;19.10;68.40
54938;DHT22;52756;52.826;6.214;2023-09-19T15:18:34;19.00;68.40
54938;DHT22;52756;52.826;6.214;2023-09-19T15:21:03;19.00;68.40
54938;DHT22;52756;52.826;6.214;2023-09-19T15:23:30;19.00;68.70
54938;DHT22;52756;52.826;6.214;2023-09-19T15:25:58;18.90;68.70
54938;DHT22;52756;52.826;6.214;2023-09-19T15:28:23;18.90;68.90
54938;DHT22;52756;52.826;6.214;2023-09-19T15:30:50;18.90;68.90
54938;DHT22;52756;52.826;6.214;2023-09-19T15:33:15;18.90;69.10
54938;DHT22;52756;52.826;6.214;2023-09-19T15:35:43;18.90;69.50
54938;DHT22;52756;52.826;6.214;2023-09-19T15:38:08;18.90;69.80
54938;DHT22;52756;52.826;6.214;2023-09-19T15:40:34;18.80;69.90
54938;DHT22;52756;52.826;6.214;2023-09-19T15:43:00;18.80;70.10
54938;DHT22;52756;52.826;6.214;2023-09-19T15:45:28;18.80;70.50
54938;DHT22;52756;52.826;6.214;2023-09-19T15:47:54;18.80;70.90
54938;DHT22;52756;52.826;6.214;2023-09-19T15:50:20;18.70;71.10
54938;DHT22;52756;52.826;6.214;2023-09-19T15:52:52;18.70;71.30
54938;DHT22;52756;52.826;6.214;2023-09-19T15:55:19;18.80;71.60
54938;DHT22;52756;52.826;6.214;2023-09-19T15:57:45;18.80;71.70
54938;DHT22;52756;52.826;6.214;2023-09-19T16:00:11;18.70;72.10
54938;DHT22;52756;52.826;6.214;2023-09-19T16:02:42;18.70;72.50
54938;DHT22;52756;52.826;6.214;2023-09-19T16:05:10;18.70;72.90
54938;DHT22;52756;52.826;6.214;2023-09-19T16:07:37;18.70;73.30
54938;DHT22;52756;52.826;6.214;2023-09-19T16:10:04;18.60;73.60
54938;DHT22;52756;52.826;6.214;2023-09-19T16:12:29;18.60;73.80